createdAt,value
2018-12-31T00:04:10.200Z,5.13
2018-12-31T00:06:51.543Z,4.80
2018-12-31T00:09:33.210Z,5.53
2018-12-31T00:12:14.035Z,5.87
2018-12-31T00:14:55.179Z,6.17
2018-12-31T00:17:36.876Z,6.17
2018-12-31T00:20:18.092Z,6.60
2018-12-31T00:22:58.691Z,6.30
2018-12-31T00:25:40.099Z,6.90
2018-12-31T00:28:09.584Z,7.57
2018-12-31T00:30:57.912Z,6.63
2018-12-31T00:33:50.591Z,6.73
2018-12-31T00:36:31.836Z,5.60
2018-12-31T00:39:12.972Z,5.97
2018-12-31T00:41:54.365Z,6.30
2018-12-31T00:44:35.228Z,6.23
2018-12-31T00:47:16.078Z,6.93
2018-12-31T00:49:58.289Z,5.87
2018-12-31T00:52:39.433Z,5.67
2018-12-31T00:55:21.183Z,4.90
2018-12-31T00:58:02.321Z,5.20
2018-12-31T01:00:43.688Z,4.23
2018-12-31T01:03:24.945Z,4.60
2018-12-31T01:06:05.499Z,4.70
2018-12-31T01:08:46.170Z,5.40
2018-12-31T01:11:27.586Z,4.90
2018-12-31T01:14:08.723Z,9.10
2018-12-31T01:16:50.075Z,8.93
2018-12-31T01:19:30.913Z,6.03
2018-12-31T01:22:11.931Z,7.43
2018-12-31T01:24:52.393Z,4.90
2018-12-31T01:27:33.272Z,4.87
2018-12-31T01:30:14.518Z,6.33
2018-12-31T01:32:55.833Z,6.50
2018-12-31T01:35:35.649Z,6.30
2018-12-31T01:38:24.538Z,7.47
2018-12-31T01:41:05.613Z,7.27
2018-12-31T01:43:47.110Z,7.77
2018-12-31T01:46:28.383Z,8.07
2018-12-31T01:49:07.743Z,8.10
2018-12-31T01:51:56.652Z,8.80
2018-12-31T01:54:38.186Z,11.07
2018-12-31T01:57:19.195Z,12.80
2018-12-31T02:00:00.576Z,11.77
2018-12-31T02:02:41.203Z,10.67
2018-12-31T02:05:21.925Z,10.40
2018-12-31T02:08:01.916Z,10.63
2018-12-31T02:10:42.460Z,11.30
2018-12-31T02:13:23.850Z,11.03
2018-12-31T02:16:05.379Z,8.87
2018-12-31T02:18:46.150Z,9.80
2018-12-31T02:21:27.011Z,8.23
2018-12-31T02:24:06.560Z,8.93
2018-12-31T02:26:55.791Z,8.87
2018-12-31T02:29:36.857Z,9.23
2018-12-31T02:32:17.545Z,9.00
2018-12-31T02:34:58.649Z,7.63
2018-12-31T02:37:39.924Z,7.90
2018-12-31T02:40:21.845Z,8.03
2018-12-31T02:43:03.200Z,7.93
2018-12-31T02:45:44.716Z,7.57
2018-12-31T02:48:25.730Z,7.07
2018-12-31T02:51:06.613Z,6.57
2018-12-31T02:53:48.191Z,6.73
2018-12-31T02:56:30.069Z,7.60
2018-12-31T02:59:11.148Z,6.73
2018-12-31T03:01:52.132Z,6.40
2018-12-31T03:04:33.023Z,7.37
2018-12-31T03:07:12.491Z,7.33
2018-12-31T03:09:54.091Z,5.70
2018-12-31T03:12:34.186Z,5.27
2018-12-31T03:15:23.035Z,6.17
2018-12-31T03:18:03.171Z,6.03
2018-12-31T03:20:51.443Z,5.93
2018-12-31T03:23:32.012Z,6.30
2018-12-31T03:26:11.795Z,6.10
2018-12-31T03:29:00.067Z,4.83
2018-12-31T03:31:41.515Z,5.50
2018-12-31T03:34:22.583Z,5.07
2018-12-31T03:37:03.692Z,5.73
2018-12-31T03:39:45.124Z,5.47
2018-12-31T03:42:26.540Z,5.30
2018-12-31T03:45:07.671Z,4.70
2018-12-31T03:47:48.867Z,4.53
2018-12-31T03:50:30.073Z,4.27
2018-12-31T03:53:11.172Z,4.60
2018-12-31T03:55:52.167Z,4.03
2018-12-31T03:58:33.003Z,4.40
2018-12-31T04:01:14.598Z,4.13
2018-12-31T04:03:55.900Z,4.67
2018-12-31T04:06:37.202Z,4.90
2018-12-31T04:09:18.187Z,5.33
2018-12-31T04:11:59.281Z,4.67
2018-12-31T04:14:40.808Z,5.00
2018-12-31T04:17:21.643Z,4.50
2018-12-31T04:20:02.970Z,5.67
2018-12-31T04:22:44.115Z,5.60
2018-12-31T04:25:25.375Z,5.60
2018-12-31T04:28:07.052Z,6.50
2018-12-31T04:30:47.752Z,5.23
2018-12-31T04:33:28.304Z,5.63
2018-12-31T04:36:09.161Z,6.20
2018-12-31T04:38:50.511Z,6.10
2018-12-31T04:41:32.052Z,6.43
2018-12-31T04:44:12.896Z,6.00
2018-12-31T04:46:54.475Z,7.37
2018-12-31T04:49:35.220Z,8.47
2018-12-31T04:52:17.212Z,8.00
2018-12-31T04:54:58.529Z,9.13
2018-12-31T04:57:39.836Z,8.10
2018-12-31T05:00:21.218Z,8.67
2018-12-31T05:03:02.707Z,8.37
2018-12-31T05:05:43.505Z,7.53
2018-12-31T05:08:23.363Z,8.33
2018-12-31T05:11:04.471Z,8.50
2018-12-31T05:13:45.505Z,8.47
2018-12-31T05:16:26.749Z,8.43
2018-12-31T05:19:08.450Z,7.77
2018-12-31T05:21:49.971Z,9.93
2018-12-31T05:24:30.957Z,9.17
2018-12-31T05:27:11.780Z,9.17
2018-12-31T05:29:53.419Z,7.87
2018-12-31T05:32:35.238Z,8.10
2018-12-31T05:35:16.102Z,7.40
2018-12-31T05:37:56.981Z,8.13
2018-12-31T05:40:36.252Z,7.87
2018-12-31T05:43:17.606Z,9.70
2018-12-31T05:45:58.720Z,8.23
2018-12-31T05:48:40.801Z,7.93
2018-12-31T05:51:22.379Z,9.10
2018-12-31T05:54:02.937Z,10.27
2018-12-31T05:56:44.233Z,10.10
2018-12-31T05:59:25.622Z,10.23
2018-12-31T06:02:06.478Z,9.83
2018-12-31T06:04:47.533Z,12.47
2018-12-31T06:07:29.289Z,13.00
2018-12-31T06:10:10.400Z,10.90
2018-12-31T06:12:49.743Z,9.87
2018-12-31T06:15:30.406Z,10.27
2018-12-31T06:18:12.614Z,9.97
2018-12-31T06:20:53.705Z,9.13
2018-12-31T06:23:34.696Z,9.80
2018-12-31T06:26:16.063Z,9.87
2018-12-31T06:28:57.430Z,9.67
2018-12-31T06:31:38.600Z,7.80
2018-12-31T06:34:20.079Z,8.57
2018-12-31T06:37:00.623Z,9.60
2018-12-31T06:39:42.135Z,7.10
2018-12-31T06:42:21.987Z,7.20
2018-12-31T06:45:02.799Z,6.77
2018-12-31T06:47:44.558Z,7.50
2018-12-31T06:50:25.596Z,7.93
2018-12-31T06:53:06.689Z,8.43
2018-12-31T06:55:48.067Z,6.40
2018-12-31T06:58:28.084Z,7.50
2018-12-31T07:01:07.632Z,7.00
2018-12-31T07:03:48.898Z,7.80
2018-12-31T07:06:30.448Z,8.00
2018-12-31T07:09:11.750Z,7.77
2018-12-31T07:11:52.902Z,8.37
2018-12-31T07:14:33.763Z,6.73
2018-12-31T07:17:14.712Z,7.43
2018-12-31T07:19:55.296Z,7.77
2018-12-31T07:22:35.769Z,9.00
2018-12-31T07:25:17.064Z,9.07
2018-12-31T07:27:58.408Z,8.50
2018-12-31T07:30:39.755Z,8.20
2018-12-31T07:33:21.078Z,9.00
2018-12-31T07:36:02.055Z,9.33
2018-12-31T07:38:43.715Z,8.63
2018-12-31T07:41:23.100Z,8.47
2018-12-31T07:44:03.686Z,9.70
2018-12-31T07:46:44.511Z,9.83
2018-12-31T07:49:25.404Z,12.30
2018-12-31T07:52:04.699Z,11.90
2018-12-31T07:54:45.878Z,12.30
2018-12-31T07:57:27.849Z,12.00
2018-12-31T08:00:08.932Z,13.73
2018-12-31T08:02:50.529Z,14.43
2018-12-31T08:05:31.749Z,16.27
2018-12-31T08:08:12.790Z,15.67
2018-12-31T08:10:54.592Z,16.27
2018-12-31T08:13:36.109Z,14.20
2018-12-31T08:16:16.712Z,13.63
2018-12-31T08:18:56.216Z,14.03
2018-12-31T08:21:37.452Z,13.60
2018-12-31T08:24:18.784Z,14.40
2018-12-31T08:27:00.711Z,19.97
2018-12-31T08:29:42.104Z,15.80
2018-12-31T08:32:22.924Z,13.70
2018-12-31T08:35:04.088Z,12.00
2018-12-31T08:37:45.766Z,21.87
2018-12-31T08:40:27.721Z,13.67
2018-12-31T08:43:08.824Z,14.80
2018-12-31T08:45:50.187Z,15.00
2018-12-31T08:48:31.171Z,11.60
2018-12-31T08:51:12.622Z,13.00
2018-12-31T08:53:53.978Z,12.57
2018-12-31T08:56:35.676Z,12.50
2018-12-31T08:59:15.145Z,11.77
2018-12-31T09:01:56.867Z,12.17
2018-12-31T09:04:38.650Z,14.77
2018-12-31T09:07:20.156Z,11.47
2018-12-31T09:10:01.263Z,25.27
2018-12-31T09:12:42.183Z,12.83
2018-12-31T09:15:22.473Z,17.20
2018-12-31T09:18:11.405Z,24.63
2018-12-31T09:20:53.232Z,20.97
2018-12-31T09:23:34.431Z,14.03
2018-12-31T09:26:15.964Z,10.10
2018-12-31T09:28:57.194Z,10.80
2018-12-31T09:31:38.114Z,9.70
2018-12-31T09:34:19.058Z,9.50
2018-12-31T09:37:00.596Z,10.50
2018-12-31T09:39:41.786Z,10.17
2018-12-31T09:42:23.167Z,9.67
2018-12-31T09:45:04.393Z,9.97
2018-12-31T09:47:45.801Z,10.53
2018-12-31T09:50:26.673Z,9.93
2018-12-31T09:53:08.373Z,9.27
2018-12-31T09:55:50.009Z,9.60
2018-12-31T09:58:31.464Z,10.17
2018-12-31T10:01:12.715Z,18.20
2018-12-31T10:03:53.532Z,19.77
2018-12-31T10:06:35.121Z,13.50
2018-12-31T10:09:16.463Z,13.17
2018-12-31T10:11:58.107Z,11.13
2018-12-31T10:14:39.428Z,8.10
2018-12-31T10:17:20.520Z,11.23
2018-12-31T10:20:01.777Z,9.10
2018-12-31T10:22:43.009Z,8.90
2018-12-31T10:25:24.437Z,9.00
2018-12-31T10:28:06.118Z,12.07
2018-12-31T10:30:46.449Z,10.27
2018-12-31T10:33:27.680Z,11.10
2018-12-31T10:36:09.139Z,11.77
2018-12-31T10:38:51.280Z,12.77
2018-12-31T10:41:33.174Z,10.47
2018-12-31T10:44:14.788Z,10.50
2018-12-31T10:46:56.398Z,10.07
2018-12-31T10:49:36.086Z,10.87
2018-12-31T10:52:16.057Z,10.53
2018-12-31T10:55:04.889Z,10.50
2018-12-31T10:57:46.312Z,11.27
2018-12-31T11:00:27.917Z,16.87
2018-12-31T11:03:09.114Z,12.27
2018-12-31T11:05:50.496Z,11.67
2018-12-31T11:08:31.684Z,10.70
2018-12-31T11:11:13.168Z,7.97
2018-12-31T11:13:54.462Z,8.83
2018-12-31T11:16:35.784Z,10.53
2018-12-31T11:19:17.027Z,12.67
2018-12-31T11:21:58.445Z,9.40
2018-12-31T11:24:39.762Z,12.03
2018-12-31T11:27:20.899Z,10.87
2018-12-31T11:30:01.814Z,11.53
2018-12-31T11:32:43.277Z,12.77
2018-12-31T11:35:24.642Z,15.33
2018-12-31T11:38:05.802Z,13.93
2018-12-31T11:40:46.489Z,13.07
2018-12-31T11:43:27.536Z,13.73
2018-12-31T11:46:08.318Z,14.17
2018-12-31T11:48:49.354Z,11.70
2018-12-31T11:51:30.608Z,13.13
2018-12-31T11:54:12.197Z,13.00
2018-12-31T11:56:54.225Z,14.13
2018-12-31T11:59:35.226Z,14.17
2018-12-31T12:02:23.332Z,14.50
2018-12-31T12:04:59.807Z,17.60
2018-12-31T12:07:41.635Z,23.67
2018-12-31T12:10:23.186Z,18.07
2018-12-31T12:13:04.504Z,16.03
2018-12-31T12:15:46.093Z,18.73
2018-12-31T12:18:27.361Z,15.57
2018-12-31T12:21:08.893Z,13.57
2018-12-31T12:23:51.205Z,13.53
2018-12-31T12:26:32.337Z,12.17
2018-12-31T12:29:11.835Z,12.00
2018-12-31T12:32:00.996Z,13.93
2018-12-31T12:34:42.217Z,12.43
2018-12-31T12:37:23.442Z,13.03
2018-12-31T12:40:04.767Z,14.40
2018-12-31T12:42:46.148Z,13.93
2018-12-31T12:45:27.653Z,13.57
2018-12-31T12:48:09.054Z,13.77
2018-12-31T12:50:50.801Z,13.67
2018-12-31T12:53:32.475Z,14.30
2018-12-31T12:56:13.872Z,15.67
2018-12-31T12:58:55.755Z,16.50
2018-12-31T13:01:37.301Z,17.03
2018-12-31T13:04:18.539Z,14.77
2018-12-31T13:07:00.187Z,15.13
2018-12-31T13:09:41.824Z,14.17
2018-12-31T13:12:23.546Z,13.87
2018-12-31T13:15:05.034Z,12.87
2018-12-31T13:17:44.726Z,12.33
2018-12-31T13:20:33.362Z,12.50
2018-12-31T13:23:14.619Z,12.07
2018-12-31T13:25:56.370Z,13.97
2018-12-31T13:28:38.024Z,13.83
2018-12-31T13:31:19.890Z,15.37
2018-12-31T13:34:01.188Z,15.03
2018-12-31T13:36:42.301Z,14.70
2018-12-31T13:39:25.153Z,16.67
2018-12-31T13:42:06.640Z,16.43
2018-12-31T13:44:48.366Z,19.77
2018-12-31T13:47:29.529Z,17.13
2018-12-31T13:50:11.132Z,16.53
2018-12-31T13:52:52.340Z,17.00
2018-12-31T13:55:34.018Z,17.37
2018-12-31T13:58:15.488Z,17.87
2018-12-31T14:00:56.781Z,19.23
2018-12-31T14:03:38.079Z,17.53
2018-12-31T14:06:19.385Z,16.10
2018-12-31T14:09:01.155Z,15.93
2018-12-31T14:11:42.593Z,16.57
2018-12-31T14:14:24.384Z,16.10
2018-12-31T14:17:05.767Z,16.13
2018-12-31T14:19:47.071Z,17.40
2018-12-31T14:22:30.126Z,18.90
2018-12-31T14:25:11.175Z,19.50
2018-12-31T14:27:53.217Z,15.53
2018-12-31T14:30:34.977Z,15.53
2018-12-31T14:33:16.582Z,16.80
2018-12-31T14:35:58.217Z,17.03
2018-12-31T14:38:40.025Z,18.10
2018-12-31T14:41:21.363Z,17.43
2018-12-31T14:44:02.566Z,20.67
2018-12-31T14:46:43.813Z,17.77
2018-12-31T14:49:25.062Z,16.73
2018-12-31T14:52:06.771Z,17.63
2018-12-31T14:54:47.963Z,18.97
2018-12-31T14:57:29.716Z,19.47
2018-12-31T15:00:11.277Z,20.80
2018-12-31T15:02:52.624Z,19.03
2018-12-31T15:05:32.379Z,20.43
2018-12-31T15:08:12.140Z,19.37
2018-12-31T15:10:53.591Z,21.80
2018-12-31T15:13:34.874Z,20.60
2018-12-31T15:16:16.285Z,19.67
2018-12-31T15:18:57.715Z,23.60
2018-12-31T15:21:39.285Z,23.13
2018-12-31T15:24:21.189Z,21.70
2018-12-31T15:27:02.405Z,22.40
2018-12-31T15:29:43.775Z,23.33
2018-12-31T15:32:26.142Z,20.77
2018-12-31T15:35:06.930Z,22.60
2018-12-31T15:37:47.769Z,21.70
2018-12-31T15:40:33.418Z,20.50
2018-12-31T15:43:14.455Z,20.70
2018-12-31T15:45:54.892Z,21.13
2018-12-31T15:48:35.723Z,20.70
2018-12-31T15:51:17.720Z,21.87
2018-12-31T15:53:59.395Z,21.07
2018-12-31T15:56:40.796Z,20.67
2018-12-31T15:59:22.216Z,23.27
2018-12-31T16:02:03.843Z,22.37
2018-12-31T16:04:45.437Z,23.07
2018-12-31T16:07:26.906Z,23.50
2018-12-31T16:10:08.120Z,23.70
2018-12-31T16:12:49.238Z,21.90
2018-12-31T16:15:29.984Z,21.83
2018-12-31T16:18:11.029Z,20.07
2018-12-31T16:20:52.243Z,21.40
2018-12-31T16:23:33.790Z,18.33
2018-12-31T16:26:15.305Z,19.50
2018-12-31T16:28:57.354Z,18.77
2018-12-31T16:31:37.400Z,20.07
2018-12-31T16:34:26.056Z,19.87
2018-12-31T16:37:07.590Z,21.27
2018-12-31T16:39:49.326Z,21.40
2018-12-31T16:42:30.572Z,27.00
2018-12-31T16:45:12.832Z,29.80
2018-12-31T16:47:54.056Z,29.27
2018-12-31T16:50:36.103Z,26.07
2018-12-31T16:53:17.492Z,22.13
2018-12-31T16:55:58.664Z,22.03
2018-12-31T16:58:39.428Z,22.90
2018-12-31T17:01:20.952Z,20.70
2018-12-31T17:04:02.902Z,21.77
2018-12-31T17:06:44.219Z,22.23
2018-12-31T17:09:25.860Z,22.60
2018-12-31T17:12:07.998Z,22.53
2018-12-31T17:14:50.103Z,24.90
2018-12-31T17:17:31.499Z,23.77
2018-12-31T17:20:13.512Z,23.30
2018-12-31T17:22:55.104Z,23.27
2018-12-31T17:25:36.285Z,21.70
2018-12-31T17:28:17.986Z,21.83
2018-12-31T17:30:59.981Z,23.70
2018-12-31T17:33:41.315Z,24.03
2018-12-31T17:36:22.300Z,25.20
2018-12-31T17:39:04.189Z,26.63
2018-12-31T17:41:45.703Z,25.10
2018-12-31T17:44:27.207Z,26.53
2018-12-31T17:47:08.605Z,25.17
2018-12-31T17:49:49.749Z,25.90
2018-12-31T17:52:30.538Z,29.93
2018-12-31T17:55:11.280Z,35.30
2018-12-31T17:57:53.228Z,33.67
2018-12-31T18:00:34.422Z,30.63
2018-12-31T18:03:15.766Z,29.00
2018-12-31T18:05:57.447Z,28.93
2018-12-31T18:08:39.317Z,31.43
2018-12-31T18:11:20.728Z,32.87
2018-12-31T18:14:01.904Z,31.47
2018-12-31T18:16:42.935Z,40.73
2018-12-31T18:19:24.605Z,40.00
2018-12-31T18:22:06.522Z,41.60
2018-12-31T18:24:48.066Z,30.83
2018-12-31T18:27:30.325Z,32.80
2018-12-31T18:30:11.963Z,34.73
2018-12-31T18:32:53.388Z,37.47
2018-12-31T18:35:34.764Z,39.37
2018-12-31T18:38:15.510Z,42.30
2018-12-31T18:40:56.449Z,47.53
2018-12-31T18:43:37.950Z,47.27
2018-12-31T18:46:19.710Z,51.00
2018-12-31T18:49:04.865Z,52.83
2018-12-31T18:51:45.926Z,55.67
2018-12-31T18:54:27.506Z,56.03
2018-12-31T18:57:08.500Z,56.47
2018-12-31T18:59:49.758Z,60.13
2018-12-31T19:02:32.539Z,49.93
2018-12-31T19:05:13.948Z,50.50
2018-12-31T19:07:55.164Z,50.27
2018-12-31T19:10:36.688Z,46.63
2018-12-31T19:13:18.076Z,47.30
2018-12-31T19:15:58.837Z,45.10
2018-12-31T19:18:40.335Z,35.73
2018-12-31T19:21:21.787Z,35.90
2018-12-31T19:24:03.174Z,34.43
2018-12-31T19:26:45.912Z,33.77
2018-12-31T19:29:27.994Z,33.97
2018-12-31T19:32:08.703Z,35.33
2018-12-31T19:34:50.238Z,33.70
2018-12-31T19:37:31.177Z,30.43
2018-12-31T19:40:13.926Z,33.63
2018-12-31T19:42:55.541Z,35.03
2018-12-31T19:45:37.253Z,35.87
2018-12-31T19:48:18.419Z,36.13
2018-12-31T19:50:59.564Z,33.23
2018-12-31T19:53:40.564Z,32.10
2018-12-31T19:56:22.654Z,27.43
2018-12-31T19:59:03.729Z,25.87
2018-12-31T20:01:44.986Z,26.07
2018-12-31T20:04:26.713Z,27.50
2018-12-31T20:07:08.505Z,28.53
2018-12-31T20:09:49.485Z,29.57
2018-12-31T20:12:29.113Z,29.60
2018-12-31T20:15:17.535Z,30.33
2018-12-31T20:17:58.631Z,32.30
2018-12-31T20:20:38.948Z,31.50
2018-12-31T20:23:27.582Z,33.40
2018-12-31T20:26:08.277Z,34.00
2018-12-31T20:28:50.026Z,34.90
2018-12-31T20:31:31.395Z,32.20
2018-12-31T20:34:12.955Z,26.13
2018-12-31T20:36:54.531Z,27.33
2018-12-31T20:39:35.608Z,27.73
2018-12-31T20:42:17.035Z,28.73
2018-12-31T20:44:57.672Z,27.67
2018-12-31T20:47:39.311Z,29.77
2018-12-31T20:50:20.763Z,28.53
2018-12-31T20:53:00.169Z,29.80
2018-12-31T20:55:48.591Z,33.87
2018-12-31T20:58:29.820Z,35.53
2018-12-31T21:01:11.391Z,35.23
2018-12-31T21:03:52.946Z,35.60
2018-12-31T21:06:33.763Z,34.43
2018-12-31T21:09:15.172Z,36.13
2018-12-31T21:11:56.857Z,36.53
2018-12-31T21:14:38.683Z,35.40
2018-12-31T21:17:19.599Z,36.13
2018-12-31T21:20:01.585Z,38.47
2018-12-31T21:22:42.736Z,36.27
2018-12-31T21:25:24.167Z,35.90
2018-12-31T21:28:05.790Z,39.43
2018-12-31T21:30:46.454Z,46.47
2018-12-31T21:33:28.483Z,49.57
2018-12-31T21:36:09.455Z,49.83
2018-12-31T21:38:50.110Z,48.53
2018-12-31T21:41:31.164Z,46.07
2018-12-31T21:44:12.518Z,40.87
2018-12-31T21:46:53.601Z,40.97
2018-12-31T21:49:35.010Z,42.37
2018-12-31T21:52:17.399Z,46.83
2018-12-31T21:54:58.847Z,48.30
2018-12-31T21:57:41.127Z,48.73
2018-12-31T22:00:22.932Z,48.23
2018-12-31T22:03:04.237Z,43.37
2018-12-31T22:05:46.561Z,42.03
2018-12-31T22:08:27.904Z,41.97
2018-12-31T22:11:09.523Z,41.43
2018-12-31T22:13:50.955Z,39.03
2018-12-31T22:16:32.701Z,41.03
2018-12-31T22:19:14.029Z,37.77
2018-12-31T22:21:55.066Z,33.77
2018-12-31T22:24:37.083Z,27.83
2018-12-31T22:27:19.023Z,28.87
2018-12-31T22:30:00.452Z,30.13
2018-12-31T22:32:41.596Z,28.50
2018-12-31T22:35:23.287Z,29.77
2018-12-31T22:38:03.125Z,32.00
2018-12-31T22:43:50.358Z,40.57
2018-12-31T22:46:31.422Z,39.30
2018-12-31T22:49:12.372Z,39.57
2018-12-31T22:51:53.859Z,40.13
2018-12-31T22:54:36.693Z,38.77
2018-12-31T22:57:17.823Z,40.30
2018-12-31T22:59:58.795Z,40.13
2018-12-31T23:02:43.748Z,45.27
2018-12-31T23:05:24.931Z,50.80
2018-12-31T23:08:06.286Z,73.27
2018-12-31T23:10:47.831Z,77.20
2018-12-31T23:13:29.524Z,63.97
2018-12-31T23:16:10.803Z,63.00
2018-12-31T23:18:52.780Z,79.23
2018-12-31T23:21:33.510Z,75.83
2018-12-31T23:24:14.247Z,81.37
2018-12-31T23:26:55.419Z,76.63
2018-12-31T23:29:37.487Z,75.50
2018-12-31T23:32:19.002Z,76.57
2018-12-31T23:35:00.456Z,73.57
2018-12-31T23:37:41.761Z,69.73
2018-12-31T23:40:23.166Z,68.80
2018-12-31T23:43:06.542Z,68.93
2018-12-31T23:45:48.367Z,72.83
2018-12-31T23:48:29.971Z,70.03
2018-12-31T23:51:11.260Z,72.37
2018-12-31T23:53:52.313Z,74.13
2018-12-31T23:56:33.142Z,73.07
2018-12-31T23:59:14.612Z,76.07
